LFSB/MLH METAR and TAF weather

Enter ICAO airport designator
Station Type Date Time Source
LFSB METAR 2019/02/16 07:00 UTC NOAA

LFSB 160700Z 17006KT 7000 NSC 01/M01 Q1029 NOSIG


Station Type Date Time Source
LFSB Decoded METAR 2019/02/16 07:00 UTC NOAA

Bale-Mulhouse, France (LFSB) 47-36N 007-31E 271M
Feb 16, 2019 - 02:00 AM EST / 2019.02.16 0700 UTC
Wind: from the S (170 degrees) at 7 MPH (6 KT):0
Visibility: 4 mile(s):0
Temperature: 33 F (1 C)
Windchill: 26 F (-3 C):1
Dew Point: 30 F (-1 C)
Relative Humidity: 86%
Pressure (altimeter): 30.39 in. Hg (1029 hPa)
ob: LFSB 160700Z 17006KT 7000 NSC 01/M01 Q1029 NOSIG
cycle: 7

Station Type Date Time Source
LFSB TAF 2019/02/16 06:21 UTC NOAA

TAF LFSB 160500Z 1606/1706 18005KT CAVOK


Example: see airport list